48.8°F
Current conditions from King Hill
Updated every 5 minutes
 
  Thursday April 24, 2014

Station Historical Data
Daily Summary for March 29, 2012 Units:  Both    English   Metric
« Previous Day
Next Day »
Daily Weekly Monthly Yearly Custom
  High: Low: Average:
Temperature: 34.7 °F /  1.5 °C 30.1 °F /  -1.1 °C 32.4 °F /  0.2 °C
Dew Point: 31.9 °F /  -0.1 °C 23.6 °F /  -4.7 °C 29 °F /  -1.7 °C
Humidity: 94% 70% 87%
Wind Speed: 7.0mph /  11.3km/h - 2.5mph /  4km/h
Wind Gust: 18.0mph /  29km/h - -
Wind- - WNW
Pressure: 29.95 in /  1014.1 hPa 29.58 in /  1001.6 hPa -
Precipitation: 0.02 in /  0.5 mm    
Historical Graphs
 
 
Tabular Data for March 29, 2012
Time Temperature Dew Point Pressure Wind Wind Speed Wind Gust Humidity Daily Rainfall
00:04 34.4 °F /  1.3 °C 31.8 °F /  -0.1 °C 29.58in /  1001.6hPa NW 5.0mph /  8km/h 10.0mph /  16.1km/h 90% 0.00in /  0mm
00:09 34.3 °F /  1.3 °C 31.9 °F /  -0.1 °C 29.59in /  1001.9hPa NNW 3.0mph /  4.8km/h 10.0mph /  16.1km/h 91% 0.00in /  0mm
00:14 34.2 °F /  1.2 °C 31.8 °F /  -0.1 °C 29.59in /  1001.9hPa NW 1.0mph /  1.6km/h 9.0mph /  14.5km/h 91% 0.00in /  0mm
00:19 34.1 °F /  1.2 °C 31.8 °F /  -0.1 °C 29.59in /  1001.9hPa WNW 3.0mph /  4.8km/h 7.0mph /  11.3km/h 91% 0.00in /  0mm
00:24 34.1 °F /  1.2 °C 31.8 °F /  -0.1 °C 29.59in /  1001.9hPa NW 4.0mph /  6.4km/h 10.0mph /  16.1km/h 91% 0.00in /  0mm
00:29 34.1 °F /  1.2 °C 31.8 °F /  -0.1 °C 29.59in /  1001.9hPa NNW 1.0mph /  1.6km/h 10.0mph /  16.1km/h 91% 0.00in /  0mm
00:34 34.0 °F /  1.1 °C 31.9 °F /  -0.1 °C 29.59in /  1001.9hPa NNW 1.0mph /  1.6km/h 9.0mph /  14.5km/h 92% 0.00in /  0mm
00:39 33.9 °F /  1.1 °C 31.8 °F /  -0.1 °C 29.59in /  1001.9hPa NW 3.0mph /  4.8km/h 9.0mph /  14.5km/h 92% 0.00in /  0mm
00:44 33.8 °F /  1 °C 31.7 °F /  -0.2 °C 29.60in /  1002.3hPa NW 5.0mph /  8km/h 8.0mph /  12.9km/h 92% 0.00in /  0mm
00:49 33.8 °F /  1 °C 31.7 °F /  -0.2 °C 29.60in /  1002.3hPa WNW 4.0mph /  6.4km/h 8.0mph /  12.9km/h 92% 0.00in /  0mm
00:54 33.8 °F /  1 °C 31.7 °F /  -0.2 °C 29.60in /  1002.3hPa NNW 1.0mph /  1.6km/h 7.0mph /  11.3km/h 92% 0.00in /  0mm
00:59 33.7 °F /  0.9 °C 31.9 °F /  -0.1 °C 29.60in /  1002.3hPa NNW 5.0mph /  8km/h 10.0mph /  16.1km/h 93% 0.00in /  0mm
01:04 33.7 °F /  0.9 °C 31.9 °F /  -0.1 °C 29.60in /  1002.3hPa NNW 2.0mph /  3.2km/h 10.0mph /  16.1km/h 93% 0.00in /  0mm
01:09 33.7 °F /  0.9 °C 31.9 °F /  -0.1 °C 29.61in /  1002.6hPa NW 2.0mph /  3.2km/h 8.0mph /  12.9km/h 93% 0.00in /  0mm
01:14 33.7 °F /  0.9 °C 31.9 °F /  -0.1 °C 29.61in /  1002.6hPa NNW 6.0mph /  9.7km/h 12.0mph /  19.3km/h 93% 0.00in /  0mm
01:19 33.6 °F /  0.9 °C 31.8 °F /  -0.1 °C 29.61in /  1002.6hPa North 2.0mph /  3.2km/h 12.0mph /  19.3km/h 93% 0.00in /  0mm
01:24 33.6 °F /  0.9 °C 31.8 °F /  -0.1 °C 29.61in /  1002.6hPa NW 3.0mph /  4.8km/h 9.0mph /  14.5km/h 93% 0.00in /  0mm
01:29 33.5 °F /  0.8 °C 31.7 °F /  -0.2 °C 29.61in /  1002.6hPa NNW 4.0mph /  6.4km/h 11.0mph /  17.7km/h 93% 0.00in /  0mm
01:39 33.4 °F /  0.8 °C 31.6 °F /  -0.2 °C 29.61in /  1002.6hPa NNW 2.0mph /  3.2km/h 11.0mph /  17.7km/h 93% 0.00in /  0mm
01:44 33.4 °F /  0.8 °C 31.6 °F /  -0.2 °C 29.61in /  1002.6hPa NW 4.0mph /  6.4km/h 9.0mph /  14.5km/h 93% 0.00in /  0mm
01:54 33.3 °F /  0.7 °C 31.5 °F /  -0.3 °C 29.62in /  1002.9hPa NW 3.0mph /  4.8km/h 10.0mph /  16.1km/h 93% 0.00in /  0mm
01:59 33.3 °F /  0.7 °C 31.5 °F /  -0.3 °C 29.62in /  1002.9hPa NNW 2.0mph /  3.2km/h 9.0mph /  14.5km/h 93% 0.00in /  0mm
02:04 33.2 °F /  0.7 °C 31.4 °F /  -0.3 °C 29.62in /  1002.9hPa NNW 2.0mph /  3.2km/h 9.0mph /  14.5km/h 93% 0.00in /  0mm
02:09 33.2 °F /  0.7 °C 31.7 °F /  -0.2 °C 29.62in /  1002.9hPa NW 3.0mph /  4.8km/h 7.0mph /  11.3km/h 94% 0.00in /  0mm
02:14 33.2 °F /  0.7 °C 31.7 °F /  -0.2 °C 29.62in /  1002.9hPa NNW 3.0mph /  4.8km/h 8.0mph /  12.9km/h 94% 0.00in /  0mm
02:19 33.1 °F /  0.6 °C 31.6 °F /  -0.2 °C 29.62in /  1002.9hPa NNW 3.0mph /  4.8km/h 10.0mph /  16.1km/h 94% 0.00in /  0mm
02:24 33.1 °F /  0.6 °C 31.6 °F /  -0.2 °C 29.62in /  1002.9hPa North 1.0mph /  1.6km/h 10.0mph /  16.1km/h 94% 0.00in /  0mm
02:29 33.0 °F /  0.6 °C 31.5 °F /  -0.3 °C 29.62in /  1002.9hPa North 1.0mph /  1.6km/h 4.0mph /  6.4km/h 94% 0.00in /  0mm
02:34 33.0 °F /  0.6 °C 31.2 °F /  -0.4 °C 29.62in /  1002.9hPa NW 3.0mph /  4.8km/h 9.0mph /  14.5km/h 93% 0.00in /  0mm
02:39 32.9 °F /  0.5 °C 31.1 °F /  -0.5 °C 29.62in /  1002.9hPa NNW 3.0mph /  4.8km/h 10.0mph /  16.1km/h 93% 0.00in /  0mm
02:44 32.9 °F /  0.5 °C 31.4 °F /  -0.3 °C 29.62in /  1002.9hPa NW 4.0mph /  6.4km/h 12.0mph /  19.3km/h 94% 0.00in /  0mm
02:49 32.8 °F /  0.4 °C 31.3 °F /  -0.4 °C 29.63in /  1003.3hPa NW 5.0mph /  8km/h 14.0mph /  22.5km/h 94% 0.00in /  0mm
02:54 32.8 °F /  0.4 °C 31.3 °F /  -0.4 °C 29.63in /  1003.3hPa NW 1.0mph /  1.6km/h 14.0mph /  22.5km/h 94% 0.00in /  0mm
02:59 32.8 °F /  0.4 °C 31.3 °F /  -0.4 °C 29.63in /  1003.3hPa NNW 2.0mph /  3.2km/h 5.0mph /  8km/h 94% 0.00in /  0mm
03:04 32.8 °F /  0.4 °C 31.3 °F /  -0.4 °C 29.62in /  1002.9hPa Calm   5.0mph /  8km/h 94% 0.00in /  0mm
03:09 32.8 °F /  0.4 °C 31.3 °F /  -0.4 °C 29.63in /  1003.3hPa North 1.0mph /  1.6km/h 6.0mph /  9.7km/h 94% 0.00in /  0mm
03:14 32.8 °F /  0.4 °C 31.3 °F /  -0.4 °C 29.63in /  1003.3hPa NNW 2.0mph /  3.2km/h 9.0mph /  14.5km/h 94% 0.00in /  0mm
03:19 32.6 °F /  0.3 °C 31.1 °F /  -0.5 °C 29.63in /  1003.3hPa Calm   9.0mph /  14.5km/h 94% 0.00in /  0mm
03:24 32.6 °F /  0.3 °C 31.1 °F /  -0.5 °C 29.63in /  1003.3hPa NNW 3.0mph /  4.8km/h 9.0mph /  14.5km/h 94% 0.00in /  0mm
03:29 32.5 °F /  0.3 °C 31.0 °F /  -0.6 °C 29.63in /  1003.3hPa NNW 2.0mph /  3.2km/h 9.0mph /  14.5km/h 94% 0.00in /  0mm
03:39 32.4 °F /  0.2 °C 30.9 °F /  -0.6 °C 29.63in /  1003.3hPa NW 2.0mph /  3.2km/h 11.0mph /  17.7km/h 94% 0.00in /  0mm
03:44 32.3 °F /  0.2 °C 30.8 °F /  -0.7 °C 29.63in /  1003.3hPa NNW 7.0mph /  11.3km/h 13.0mph /  20.9km/h 94% 0.00in /  0mm
03:49 32.2 °F /  0.1 °C 30.7 °F /  -0.7 °C 29.63in /  1003.3hPa North 3.0mph /  4.8km/h 13.0mph /  20.9km/h 94% 0.00in /  0mm
03:54 32.1 °F /  0.1 °C 30.6 °F /  -0.8 °C 29.64in /  1003.6hPa NNW 2.0mph /  3.2km/h 7.0mph /  11.3km/h 94% 0.00in /  0mm
03:59 31.9 °F /  -0.1 °C 30.4 °F /  -0.9 °C 29.64in /  1003.6hPa North 1.0mph /  1.6km/h 9.0mph /  14.5km/h 94% 0.00in /  0mm
04:04 31.9 °F /  -0.1 °C 30.4 °F /  -0.9 °C 29.64in /  1003.6hPa Calm   9.0mph /  14.5km/h 94% 0.00in /  0mm
04:09 31.9 °F /  -0.1 °C 30.4 °F /  -0.9 °C 29.64in /  1003.6hPa Calm   4.0mph /  6.4km/h 94% 0.00in /  0mm
04:14 31.9 °F /  -0.1 °C 30.4 °F /  -0.9 °C 29.64in /  1003.6hPa Calm   6.0mph /  9.7km/h 94% 0.00in /  0mm
04:19 31.9 °F /  -0.1 °C 30.4 °F /  -0.9 °C 29.64in /  1003.6hPa NNW 3.0mph /  4.8km/h 8.0mph /  12.9km/h 94% 0.00in /  0mm
04:29 31.8 °F /  -0.1 °C 30.3 °F /  -0.9 °C 29.65in /  1003.9hPa NW 1.0mph /  1.6km/h 4.0mph /  6.4km/h 94% 0.00in /  0mm
04:34 31.8 °F /  -0.1 °C 30.3 °F /  -0.9 °C 29.65in /  1003.9hPa NNW 3.0mph /  4.8km/h 5.0mph /  8km/h 94% 0.00in /  0mm
04:39 31.6 °F /  -0.2 °C 30.1 °F /  -1.1 °C 29.65in /  1003.9hPa NNW 1.0mph /  1.6km/h 7.0mph /  11.3km/h 94% 0.00in /  0mm
04:44 31.6 °F /  -0.2 °C 30.1 °F /  -1.1 °C 29.65in /  1003.9hPa Calm   7.0mph /  11.3km/h 94% 0.00in /  0mm
04:49 31.5 °F /  -0.3 °C 30.0 °F /  -1.1 °C 29.65in /  1003.9hPa NNW 2.0mph /  3.2km/h 7.0mph /  11.3km/h 94% 0.00in /  0mm
04:54 31.4 °F /  -0.3 °C 29.9 °F /  -1.2 °C 29.66in /  1004.3hPa NNW 2.0mph /  3.2km/h 7.0mph /  11.3km/h 94% 0.00in /  0mm
04:59 31.3 °F /  -0.4 °C 29.8 °F /  -1.2 °C 29.66in /  1004.3hPa Calm   5.0mph /  8km/h 94% 0.00in /  0mm
05:04 31.2 °F /  -0.4 °C 29.7 °F /  -1.3 °C 29.66in /  1004.3hPa NNW 3.0mph /  4.8km/h 6.0mph /  9.7km/h 94% 0.00in /  0mm
05:09 31.1 °F /  -0.5 °C 29.6 °F /  -1.3 °C 29.66in /  1004.3hPa North 1.0mph /  1.6km/h 10.0mph /  16.1km/h 94% 0.00in /  0mm
05:14 31.0 °F /  -0.6 °C 29.5 °F /  -1.4 °C 29.66in /  1004.3hPa North 1.0mph /  1.6km/h 10.0mph /  16.1km/h 94% 0.00in /  0mm
05:19 30.9 °F /  -0.6 °C 29.4 °F /  -1.4 °C 29.66in /  1004.3hPa North 1.0mph /  1.6km/h 8.0mph /  12.9km/h 94% 0.00in /  0mm
05:24 30.8 °F /  -0.7 °C 29.3 °F /  -1.5 °C 29.67in /  1004.6hPa North 3.0mph /  4.8km/h 9.0mph /  14.5km/h 94% 0.00in /  0mm
05:29 30.7 °F /  -0.7 °C 29.2 °F /  -1.6 °C 29.67in /  1004.6hPa NNW 1.0mph /  1.6km/h 11.0mph /  17.7km/h 94% 0.00in /  0mm
05:34 30.6 °F /  -0.8 °C 29.1 °F /  -1.6 °C 29.67in /  1004.6hPa Calm   11.0mph /  17.7km/h 94% 0.00in /  0mm
05:44 30.6 °F /  -0.8 °C 29.1 °F /  -1.6 °C 29.67in /  1004.6hPa Calm   7.0mph /  11.3km/h 94% 0.00in /  0mm
05:49 30.5 °F /  -0.8 °C 29.0 °F /  -1.7 °C 29.68in /  1005hPa North 2.0mph /  3.2km/h 10.0mph /  16.1km/h 94% 0.00in /  0mm
05:54 30.5 °F /  -0.8 °C 29.0 °F /  -1.7 °C 29.68in /  1005hPa North 2.0mph /  3.2km/h 11.0mph /  17.7km/h 94% 0.00in /  0mm
05:59 30.5 °F /  -0.8 °C 29.0 °F /  -1.7 °C 29.68in /  1005hPa North 2.0mph /  3.2km/h 11.0mph /  17.7km/h 94% 0.00in /  0mm
06:04 30.5 °F /  -0.8 °C 29.0 °F /  -1.7 °C 29.68in /  1005hPa Calm   6.0mph /  9.7km/h 94% 0.00in /  0mm
06:09 30.4 °F /  -0.9 °C 28.9 °F /  -1.7 °C 29.68in /  1005hPa NNE 1.0mph /  1.6km/h 6.0mph /  9.7km/h 94% 0.00in /  0mm
06:19 30.3 °F /  -0.9 °C 28.8 °F /  -1.8 °C 29.69in /  1005.3hPa Calm   7.0mph /  11.3km/h 94% 0.00in /  0mm
06:24 30.2 °F /  -1 °C 28.7 °F /  -1.8 °C 29.69in /  1005.3hPa Calm   5.0mph /  8km/h 94% 0.00in /  0mm
06:29 30.2 °F /  -1 °C 28.7 °F /  -1.8 °C 29.69in /  1005.3hPa North 1.0mph /  1.6km/h 7.0mph /  11.3km/h 94% 0.00in /  0mm
06:34 30.2 °F /  -1 °C 28.7 °F /  -1.8 °C 29.69in /  1005.3hPa Calm   7.0mph /  11.3km/h 94% 0.00in /  0mm
06:39 30.2 °F /  -1 °C 28.7 °F /  -1.8 °C 29.70in /  1005.6hPa Calm   5.0mph /  8km/h 94% 0.00in /  0mm
06:44 30.2 °F /  -1 °C 28.7 °F /  -1.8 °C 29.70in /  1005.6hPa North 1.0mph /  1.6km/h 10.0mph /  16.1km/h 94% 0.00in /  0mm
06:49 30.2 °F /  -1 °C 28.7 °F /  -1.8 °C 29.70in /  1005.6hPa NNW 1.0mph /  1.6km/h 10.0mph /  16.1km/h 94% 0.00in /  0mm
06:54 30.2 °F /  -1 °C 28.7 °F /  -1.8 °C 29.70in /  1005.6hPa Calm   5.0mph /  8km/h 94% 0.00in /  0mm
06:59 30.2 °F /  -1 °C 28.7 °F /  -1.8 °C 29.71in /  1006hPa Calm   5.0mph /  8km/h 94% 0.00in /  0mm
07:05 30.2 °F /  -1 °C 28.7 °F /  -1.8 °C 29.71in /  1006hPa Calm   8.0mph /  12.9km/h 94% 0.00in /  0mm
07:14 30.3 °F /  -0.9 °C 28.8 °F /  -1.8 °C 29.72in /  1006.3hPa Calm   6.0mph /  9.7km/h 94% 0.00in /  0mm
07:19 30.4 °F /  -0.9 °C 28.9 °F /  -1.7 °C 29.72in /  1006.3hPa Calm   3.0mph /  4.8km/h 94% 0.00in /  0mm
07:24 30.3 °F /  -0.9 °C 28.8 °F /  -1.8 °C 29.72in /  1006.3hPa Calm   8.0mph /  12.9km/h 94% 0.00in /  0mm
07:34 30.2 °F /  -1 °C 28.7 °F /  -1.8 °C 29.73in /  1006.7hPa Calm   5.0mph /  8km/h 94% 0.00in /  0mm
07:40 30.2 °F /  -1 °C 28.7 °F /  -1.8 °C 29.73in /  1006.7hPa Calm   5.0mph /  8km/h 94% 0.00in /  0mm
07:49 30.2 °F /  -1 °C 28.7 °F /  -1.8 °C 29.73in /  1006.7hPa Calm   6.0mph /  9.7km/h 94% 0.00in /  0mm
07:55 30.2 °F /  -1 °C 28.7 °F /  -1.8 °C 29.74in /  1007hPa NNE 2.0mph /  3.2km/h 7.0mph /  11.3km/h 94% 0.00in /  0mm
08:04 30.2 °F /  -1 °C 28.7 °F /  -1.8 °C 29.74in /  1007hPa North 1.0mph /  1.6km/h 7.0mph /  11.3km/h 94% 0.00in /  0mm
08:09 30.2 °F /  -1 °C 28.7 °F /  -1.8 °C 29.74in /  1007hPa Calm   7.0mph /  11.3km/h 94% 0.00in /  0mm
08:14 30.1 °F /  -1.1 °C 28.6 °F /  -1.9 °C 29.74in /  1007hPa NNE 2.0mph /  3.2km/h 8.0mph /  12.9km/h 94% 0.00in /  0mm
08:19 30.1 °F /  -1.1 °C 28.6 °F /  -1.9 °C 29.75in /  1007.3hPa Calm   9.0mph /  14.5km/h 94% 0.00in /  0mm
08:24 30.1 °F /  -1.1 °C 28.6 °F /  -1.9 °C 29.75in /  1007.3hPa North 2.0mph /  3.2km/h 9.0mph /  14.5km/h 94% 0.00in /  0mm
08:29 30.1 °F /  -1.1 °C 28.6 °F /  -1.9 °C 29.75in /  1007.3hPa NNE 2.0mph /  3.2km/h 10.0mph /  16.1km/h 94% 0.00in /  0mm
08:34 30.1 °F /  -1.1 °C 28.6 °F /  -1.9 °C 29.75in /  1007.3hPa Calm   10.0mph /  16.1km/h 94% 0.00in /  0mm
08:44 30.2 °F /  -1 °C 28.4 °F /  -2 °C 29.75in /  1007.3hPa North 1.0mph /  1.6km/h 7.0mph /  11.3km/h 93% 0.00in /  0mm
08:50 30.2 °F /  -1 °C 28.4 °F /  -2 °C 29.75in /  1007.3hPa North 2.0mph /  3.2km/h 8.0mph /  12.9km/h 93% 0.00in /  0mm
08:59 30.3 °F /  -0.9 °C 28.5 °F /  -1.9 °C 29.76in /  1007.7hPa North 1.0mph /  1.6km/h 8.0mph /  12.9km/h 93% 0.00in /  0mm
09:05 30.4 °F /  -0.9 °C 28.6 °F /  -1.9 °C 29.76in /  1007.7hPa Calm   6.0mph /  9.7km/h 93% 0.00in /  0mm
09:14 30.4 °F /  -0.9 °C 28.6 °F /  -1.9 °C 29.76in /  1007.7hPa NNW 2.0mph /  3.2km/h 7.0mph /  11.3km/h 93% 0.00in /  0mm
09:19 30.5 °F /  -0.8 °C 28.5 °F /  -1.9 °C 29.77in /  1008hPa NNE 1.0mph /  1.6km/h 9.0mph /  14.5km/h 92% 0.00in /  0mm
09:24 30.5 °F /  -0.8 °C 28.5 °F /  -1.9 °C 29.77in /  1008hPa North 1.0mph /  1.6km/h 9.0mph /  14.5km/h 92% 0.00in /  0mm
09:29 30.5 °F /  -0.8 °C 28.5 °F /  -1.9 °C 29.77in /  1008hPa North 1.0mph /  1.6km/h 6.0mph /  9.7km/h 92% 0.00in /  0mm
09:34 30.6 °F /  -0.8 °C 28.6 °F /  -1.9 °C 29.78in /  1008.4hPa Calm   6.0mph /  9.7km/h 92% 0.00in /  0mm
09:39 30.6 °F /  -0.8 °C 28.6 °F /  -1.9 °C 29.78in /  1008.4hPa NNE 1.0mph /  1.6km/h 5.0mph /  8km/h 92% 0.00in /  0mm
09:45 30.6 °F /  -0.8 °C 28.6 °F /  -1.9 °C 29.78in /  1008.4hPa North 1.0mph /  1.6km/h 5.0mph /  8km/h 92% 0.00in /  0mm
09:54 30.8 °F /  -0.7 °C 28.8 °F /  -1.8 °C 29.78in /  1008.4hPa NNW 3.0mph /  4.8km/h 7.0mph /  11.3km/h 92% 0.00in /  0mm
09:59 30.8 °F /  -0.7 °C 28.5 °F /  -1.9 °C 29.78in /  1008.4hPa NNW 3.0mph /  4.8km/h 7.0mph /  11.3km/h 91% 0.00in /  0mm
10:04 30.8 °F /  -0.7 °C 28.2 °F /  -2.1 °C 29.78in /  1008.4hPa NNE 2.0mph /  3.2km/h 7.0mph /  11.3km/h 90% 0.00in /  0mm
10:09 30.9 °F /  -0.6 °C 28.3 °F /  -2.1 °C 29.78in /  1008.4hPa North 2.0mph /  3.2km/h 7.0mph /  11.3km/h 90% 0.00in /  0mm
10:14 31.0 °F /  -0.6 °C 28.4 °F /  -2 °C 29.79in /  1008.7hPa NNE 2.0mph /  3.2km/h 4.0mph /  6.4km/h 90% 0.00in /  0mm
10:19 31.1 °F /  -0.5 °C 28.5 °F /  -1.9 °C 29.79in /  1008.7hPa Calm   4.0mph /  6.4km/h 90% 0.00in /  0mm
10:24 31.3 °F /  -0.4 °C 28.4 °F /  -2 °C 29.79in /  1008.7hPa NNE 1.0mph /  1.6km/h 5.0mph /  8km/h 89% 0.00in /  0mm
10:29 31.4 °F /  -0.3 °C 28.8 °F /  -1.8 °C 29.79in /  1008.7hPa NNW 2.0mph /  3.2km/h 5.0mph /  8km/h 90% 0.00in /  0mm
10:34 31.5 °F /  -0.3 °C 28.6 °F /  -1.9 °C 29.79in /  1008.7hPa Calm   4.0mph /  6.4km/h 89% 0.00in /  0mm
10:39 31.5 °F /  -0.3 °C 28.6 °F /  -1.9 °C 29.79in /  1008.7hPa NNW 1.0mph /  1.6km/h 3.0mph /  4.8km/h 89% 0.00in /  0mm
10:44 31.6 °F /  -0.2 °C 28.7 °F /  -1.8 °C 29.80in /  1009hPa NW 2.0mph /  3.2km/h 5.0mph /  8km/h 89% 0.00in /  0mm
10:50 31.9 °F /  -0.1 °C 29.0 °F /  -1.7 °C 29.80in /  1009hPa NNW 1.0mph /  1.6km/h 5.0mph /  8km/h 89% 0.00in /  0mm
10:59 32.1 °F /  0.1 °C 29.0 °F /  -1.7 °C 29.80in /  1009hPa NNW 2.0mph /  3.2km/h 8.0mph /  12.9km/h 88% 0.00in /  0mm
11:04 32.3 °F /  0.2 °C 29.1 °F /  -1.6 °C 29.80in /  1009hPa NNW 2.0mph /  3.2km/h 8.0mph /  12.9km/h 88% 0.00in /  0mm
11:09 32.5 °F /  0.3 °C 29.3 °F /  -1.5 °C 29.80in /  1009hPa Calm   7.0mph /  11.3km/h 88% 0.00in /  0mm
11:14 32.7 °F /  0.4 °C 29.5 °F /  -1.4 °C 29.80in /  1009hPa North 3.0mph /  4.8km/h 8.0mph /  12.9km/h 88% 0.01in /  0.3mm
11:19 32.7 °F /  0.4 °C 29.5 °F /  -1.4 °C 29.80in /  1009hPa NNW 1.0mph /  1.6km/h 8.0mph /  12.9km/h 88% 0.01in /  0.3mm
11:24 32.6 °F /  0.3 °C 29.2 °F /  -1.6 °C 29.80in /  1009hPa North 4.0mph /  6.4km/h 9.0mph /  14.5km/h 87% 0.01in /  0.3mm
11:29 32.7 °F /  0.4 °C 29.3 °F /  -1.5 °C 29.80in /  1009hPa Calm   9.0mph /  14.5km/h 87% 0.01in /  0.3mm
11:34 32.8 °F /  0.4 °C 29.4 °F /  -1.4 °C 29.81in /  1009.4hPa North 2.0mph /  3.2km/h 6.0mph /  9.7km/h 87% 0.01in /  0.3mm
11:39 32.7 °F /  0.4 °C 29.3 °F /  -1.5 °C 29.81in /  1009.4hPa NNW 1.0mph /  1.6km/h 6.0mph /  9.7km/h 87% 0.01in /  0.3mm
11:44 32.6 °F /  0.3 °C 29.2 °F /  -1.6 °C 29.81in /  1009.4hPa NNW 3.0mph /  4.8km/h 7.0mph /  11.3km/h 87% 0.01in /  0.3mm
11:49 32.4 °F /  0.2 °C 28.7 °F /  -1.8 °C 29.81in /  1009.4hPa NNW 1.0mph /  1.6km/h 8.0mph /  12.9km/h 86% 0.01in /  0.3mm
11:54 32.4 °F /  0.2 °C 29.0 °F /  -1.7 °C 29.81in /  1009.4hPa Calm   8.0mph /  12.9km/h 87% 0.01in /  0.3mm
11:59 32.4 °F /  0.2 °C 29.0 °F /  -1.7 °C 29.81in /  1009.4hPa NNW 1.0mph /  1.6km/h 3.0mph /  4.8km/h 87% 0.01in /  0.3mm
12:04 32.3 °F /  0.2 °C 28.9 °F /  -1.7 °C 29.81in /  1009.4hPa NW 1.0mph /  1.6km/h 5.0mph /  8km/h 87% 0.01in /  0.3mm
12:09 32.3 °F /  0.2 °C 28.9 °F /  -1.7 °C 29.82in /  1009.7hPa NNW 2.0mph /  3.2km/h 6.0mph /  9.7km/h 87% 0.01in /  0.3mm
12:14 32.3 °F /  0.2 °C 28.9 °F /  -1.7 °C 29.82in /  1009.7hPa NNW 2.0mph /  3.2km/h 7.0mph /  11.3km/h 87% 0.01in /  0.3mm
12:19 32.2 °F /  0.1 °C 29.0 °F /  -1.7 °C 29.82in /  1009.7hPa Calm   7.0mph /  11.3km/h 88% 0.01in /  0.3mm
12:24 32.4 °F /  0.2 °C 29.2 °F /  -1.6 °C 29.82in /  1009.7hPa NNW 1.0mph /  1.6km/h 5.0mph /  8km/h 88% 0.01in /  0.3mm
12:29 32.6 °F /  0.3 °C 29.4 °F /  -1.4 °C 29.82in /  1009.7hPa NNW 1.0mph /  1.6km/h 5.0mph /  8km/h 88% 0.01in /  0.3mm
12:34 32.6 °F /  0.3 °C 29.4 °F /  -1.4 °C 29.82in /  1009.7hPa NNW 1.0mph /  1.6km/h 6.0mph /  9.7km/h 88% 0.01in /  0.3mm
12:39 32.6 °F /  0.3 °C 29.4 °F /  -1.4 °C 29.82in /  1009.7hPa NNW 2.0mph /  3.2km/h 6.0mph /  9.7km/h 88% 0.01in /  0.3mm
12:44 32.6 °F /  0.3 °C 29.2 °F /  -1.6 °C 29.82in /  1009.7hPa North 2.0mph /  3.2km/h 5.0mph /  8km/h 87% 0.02in /  0.5mm
12:49 32.7 °F /  0.4 °C 29.3 °F /  -1.5 °C 29.83in /  1010hPa North 1.0mph /  1.6km/h 7.0mph /  11.3km/h 87% 0.02in /  0.5mm
12:54 32.7 °F /  0.4 °C 29.3 °F /  -1.5 °C 29.82in /  1009.7hPa NW 2.0mph /  3.2km/h 7.0mph /  11.3km/h 87% 0.02in /  0.5mm
12:59 32.8 °F /  0.4 °C 29.4 °F /  -1.4 °C 29.83in /  1010hPa North 1.0mph /  1.6km/h 6.0mph /  9.7km/h 87% 0.02in /  0.5mm
13:04 32.9 °F /  0.5 °C 29.5 °F /  -1.4 °C 29.83in /  1010hPa NE 1.0mph /  1.6km/h 5.0mph /  8km/h 87% 0.02in /  0.5mm
13:09 32.8 °F /  0.4 °C 29.1 °F /  -1.6 °C 29.83in /  1010hPa Calm   6.0mph /  9.7km/h 86% 0.02in /  0.5mm
13:14 32.9 °F /  0.5 °C 29.2 °F /  -1.6 °C 29.83in /  1010hPa NW 3.0mph /  4.8km/h 8.0mph /  12.9km/h 86% 0.02in /  0.5mm
13:19 32.9 °F /  0.5 °C 29.2 °F /  -1.6 °C 29.83in /  1010hPa NNW 2.0mph /  3.2km/h 8.0mph /  12.9km/h 86% 0.02in /  0.5mm
13:24 33.0 °F /  0.6 °C 29.3 °F /  -1.5 °C 29.83in /  1010hPa Calm   7.0mph /  11.3km/h 86% 0.02in /  0.5mm
13:29 33.0 °F /  0.6 °C 29.3 °F /  -1.5 °C 29.83in /  1010hPa Calm   4.0mph /  6.4km/h 86% 0.02in /  0.5mm
13:34 33.1 °F /  0.6 °C 29.4 °F /  -1.4 °C 29.83in /  1010hPa Calm   7.0mph /  11.3km/h 86% 0.02in /  0.5mm
13:44 33.2 °F /  0.7 °C 29.2 °F /  -1.6 °C 29.83in /  1010hPa NNW 2.0mph /  3.2km/h 6.0mph /  9.7km/h 85% 0.02in /  0.5mm
13:49 33.3 °F /  0.7 °C 29.3 °F /  -1.5 °C 29.83in /  1010hPa Calm   6.0mph /  9.7km/h 85% 0.02in /  0.5mm
13:54 33.3 °F /  0.7 °C 29.3 °F /  -1.5 °C 29.83in /  1010hPa North 1.0mph /  1.6km/h 6.0mph /  9.7km/h 85% 0.02in /  0.5mm
13:59 33.4 °F /  0.8 °C 29.1 °F /  -1.6 °C 29.83in /  1010hPa NNE 1.0mph /  1.6km/h 5.0mph /  8km/h 84% 0.02in /  0.5mm
14:04 33.4 °F /  0.8 °C 29.1 °F /  -1.6 °C 29.83in /  1010hPa NE 1.0mph /  1.6km/h 7.0mph /  11.3km/h 84% 0.02in /  0.5mm
14:09 33.6 °F /  0.9 °C 29.3 °F /  -1.5 °C 29.83in /  1010hPa North 1.0mph /  1.6km/h 7.0mph /  11.3km/h 84% 0.02in /  0.5mm
14:14 33.6 °F /  0.9 °C 29.0 °F /  -1.7 °C 29.83in /  1010hPa NNW 3.0mph /  4.8km/h 6.0mph /  9.7km/h 83% 0.02in /  0.5mm
14:19 33.6 °F /  0.9 °C 29.0 °F /  -1.7 °C 29.83in /  1010hPa NW 2.0mph /  3.2km/h 6.0mph /  9.7km/h 83% 0.02in /  0.5mm
14:24 33.8 °F /  1 °C 29.2 °F /  -1.6 °C 29.83in /  1010hPa Calm   5.0mph /  8km/h 83% 0.02in /  0.5mm
14:29 34.0 °F /  1.1 °C 29.4 °F /  -1.4 °C 29.83in /  1010hPa Calm   3.0mph /  4.8km/h 83% 0.02in /  0.5mm
14:34 34.1 °F /  1.2 °C 29.5 °F /  -1.4 °C 29.83in /  1010hPa WNW 4.0mph /  6.4km/h 6.0mph /  9.7km/h 83% 0.02in /  0.5mm
14:40 34.1 °F /  1.2 °C 29.2 °F /  -1.6 °C 29.83in /  1010hPa NW 4.0mph /  6.4km/h 8.0mph /  12.9km/h 82% 0.02in /  0.5mm
14:45 34.1 °F /  1.2 °C 29.2 °F /  -1.6 °C 29.83in /  1010hPa Calm   8.0mph /  12.9km/h 82% 0.02in /  0.5mm
14:50 34.3 °F /  1.3 °C 29.4 °F /  -1.4 °C 29.83in /  1010hPa NW 4.0mph /  6.4km/h 6.0mph /  9.7km/h 82% 0.02in /  0.5mm
14:55 34.3 °F /  1.3 °C 29.1 °F /  -1.6 °C 29.83in /  1010hPa NW 3.0mph /  4.8km/h 6.0mph /  9.7km/h 81% 0.02in /  0.5mm
15:04 34.4 °F /  1.3 °C 29.5 °F /  -1.4 °C 29.83in /  1010hPa NNW 3.0mph /  4.8km/h 6.0mph /  9.7km/h 82% 0.02in /  0.5mm
15:10 34.4 °F /  1.3 °C 29.5 °F /  -1.4 °C 29.84in /  1010.4hPa Calm   5.0mph /  8km/h 82% 0.02in /  0.5mm
15:15 34.4 °F /  1.3 °C 29.5 °F /  -1.4 °C 29.84in /  1010.4hPa NW 1.0mph /  1.6km/h 5.0mph /  8km/h 82% 0.02in /  0.5mm
15:20 34.6 °F /  1.4 °C 29.4 °F /  -1.4 °C 29.84in /  1010.4hPa NNW 2.0mph /  3.2km/h 5.0mph /  8km/h 81% 0.02in /  0.5mm
15:29 34.5 °F /  1.4 °C 29.3 °F /  -1.5 °C 29.84in /  1010.4hPa NNW 2.0mph /  3.2km/h 8.0mph /  12.9km/h 81% 0.02in /  0.5mm
15:34 34.6 °F /  1.4 °C 29.1 °F /  -1.6 °C 29.84in /  1010.4hPa NW 2.0mph /  3.2km/h 8.0mph /  12.9km/h 80% 0.02in /  0.5mm
15:39 34.7 °F /  1.5 °C 29.2 °F /  -1.6 °C 29.84in /  1010.4hPa Calm   6.0mph /  9.7km/h 80% 0.02in /  0.5mm
15:44 34.6 °F /  1.4 °C 29.1 °F /  -1.6 °C 29.84in /  1010.4hPa NW 1.0mph /  1.6km/h 5.0mph /  8km/h 80% 0.02in /  0.5mm
15:49 34.6 °F /  1.4 °C 29.1 °F /  -1.6 °C 29.84in /  1010.4hPa Calm   5.0mph /  8km/h 80% 0.02in /  0.5mm
16:00 34.4 °F /  1.3 °C 28.9 °F /  -1.7 °C 29.85in /  1010.7hPa NW 1.0mph /  1.6km/h 3.0mph /  4.8km/h 80% 0.02in /  0.5mm
16:10 34.1 °F /  1.2 °C 28.6 °F /  -1.9 °C 29.84in /  1010.4hPa WNW 3.0mph /  4.8km/h 6.0mph /  9.7km/h 80% 0.02in /  0.5mm
16:19 33.8 °F /  1 °C 28.6 °F /  -1.9 °C 29.85in /  1010.7hPa WNW 3.0mph /  4.8km/h 5.0mph /  8km/h 81% 0.02in /  0.5mm
16:24 33.7 °F /  0.9 °C 28.5 °F /  -1.9 °C 29.85in /  1010.7hPa NW 2.0mph /  3.2km/h 5.0mph /  8km/h 81% 0.02in /  0.5mm
16:29 33.6 °F /  0.9 °C 28.7 °F /  -1.8 °C 29.85in /  1010.7hPa NW 1.0mph /  1.6km/h 5.0mph /  8km/h 82% 0.02in /  0.5mm
16:34 33.6 °F /  0.9 °C 29.0 °F /  -1.7 °C 29.85in /  1010.7hPa Calm   4.0mph /  6.4km/h 83% 0.02in /  0.5mm
16:40 33.5 °F /  0.8 °C 28.9 °F /  -1.7 °C 29.85in /  1010.7hPa NW 2.0mph /  3.2km/h 5.0mph /  8km/h 83% 0.02in /  0.5mm
16:44 33.5 °F /  0.8 °C 28.9 °F /  -1.7 °C 29.86in /  1011.1hPa NNW 2.0mph /  3.2km/h 5.0mph /  8km/h 83% 0.02in /  0.5mm
16:49 33.4 °F /  0.8 °C 28.8 °F /  -1.8 °C 29.86in /  1011.1hPa West 3.0mph /  4.8km/h 5.0mph /  8km/h 83% 0.02in /  0.5mm
16:54 33.4 °F /  0.8 °C 28.8 °F /  -1.8 °C 29.86in /  1011.1hPa WNW 2.0mph /  3.2km/h 5.0mph /  8km/h 83% 0.02in /  0.5mm
16:59 33.4 °F /  0.8 °C 29.1 °F /  -1.6 °C 29.86in /  1011.1hPa WNW 1.0mph /  1.6km/h 5.0mph /  8km/h 84% 0.02in /  0.5mm
17:04 33.4 °F /  0.8 °C 29.1 °F /  -1.6 °C 29.86in /  1011.1hPa NW 2.0mph /  3.2km/h 4.0mph /  6.4km/h 84% 0.02in /  0.5mm
17:09 33.4 °F /  0.8 °C 29.1 °F /  -1.6 °C 29.87in /  1011.4hPa NW 3.0mph /  4.8km/h 8.0mph /  12.9km/h 84% 0.02in /  0.5mm
17:14 33.3 °F /  0.7 °C 29.0 °F /  -1.7 °C 29.87in /  1011.4hPa NNW 5.0mph /  8km/h 8.0mph /  12.9km/h 84% 0.02in /  0.5mm
17:19 33.2 °F /  0.7 °C 28.9 °F /  -1.7 °C 29.87in /  1011.4hPa NW 4.0mph /  6.4km/h 8.0mph /  12.9km/h 84% 0.02in /  0.5mm
17:24 33.2 °F /  0.7 °C 29.2 °F /  -1.6 °C 29.87in /  1011.4hPa NW 3.0mph /  4.8km/h 7.0mph /  11.3km/h 85% 0.02in /  0.5mm
17:29 33.1 °F /  0.6 °C 29.1 °F /  -1.6 °C 29.87in /  1011.4hPa NW 2.0mph /  3.2km/h 7.0mph /  11.3km/h 85% 0.02in /  0.5mm
17:34 33.1 °F /  0.6 °C 29.4 °F /  -1.4 °C 29.87in /  1011.4hPa NNW 3.0mph /  4.8km/h 7.0mph /  11.3km/h 86% 0.02in /  0.5mm
17:39 33.0 °F /  0.6 °C 29.3 °F /  -1.5 °C 29.88in /  1011.7hPa NW 4.0mph /  6.4km/h 11.0mph /  17.7km/h 86% 0.02in /  0.5mm
17:44 33.0 °F /  0.6 °C 29.3 °F /  -1.5 °C 29.88in /  1011.7hPa NNW 3.0mph /  4.8km/h 11.0mph /  17.7km/h 86% 0.02in /  0.5mm
17:49 33.1 °F /  0.6 °C 31.0 °F /  -0.6 °C 29.88in /  1011.7hPa NNW 3.0mph /  4.8km/h 10.0mph /  16.1km/h 92% 0.02in /  0.5mm
17:54 33.1 °F /  0.6 °C 31.0 °F /  -0.6 °C 29.88in /  1011.7hPa NW 3.0mph /  4.8km/h 10.0mph /  16.1km/h 92% 0.02in /  0.5mm
17:59 33.1 °F /  0.6 °C 29.4 °F /  -1.4 °C 29.88in /  1011.7hPa NW 1.0mph /  1.6km/h 9.0mph /  14.5km/h 86% 0.02in /  0.5mm
18:04 33.1 °F /  0.6 °C 29.4 °F /  -1.4 °C 29.88in /  1011.7hPa NNW 1.0mph /  1.6km/h 8.0mph /  12.9km/h 86% 0.02in /  0.5mm
18:09 33.1 °F /  0.6 °C 29.4 °F /  -1.4 °C 29.88in /  1011.7hPa NNW 2.0mph /  3.2km/h 7.0mph /  11.3km/h 86% 0.02in /  0.5mm
18:14 33.0 °F /  0.6 °C 29.3 °F /  -1.5 °C 29.88in /  1011.7hPa NW 1.0mph /  1.6km/h 8.0mph /  12.9km/h 86% 0.02in /  0.5mm
18:19 33.0 °F /  0.6 °C 29.3 °F /  -1.5 °C 29.88in /  1011.7hPa NNW 3.0mph /  4.8km/h 8.0mph /  12.9km/h 86% 0.02in /  0.5mm
18:24 33.0 °F /  0.6 °C 29.3 °F /  -1.5 °C 29.89in /  1012.1hPa NNW 2.0mph /  3.2km/h 6.0mph /  9.7km/h 86% 0.02in /  0.5mm
18:29 33.0 °F /  0.6 °C 29.3 °F /  -1.5 °C 29.89in /  1012.1hPa NW 2.0mph /  3.2km/h 7.0mph /  11.3km/h 86% 0.02in /  0.5mm
18:34 32.9 °F /  0.5 °C 29.2 °F /  -1.6 °C 29.89in /  1012.1hPa Calm   7.0mph /  11.3km/h 86% 0.02in /  0.5mm
18:39 32.9 °F /  0.5 °C 29.2 °F /  -1.6 °C 29.89in /  1012.1hPa NW 1.0mph /  1.6km/h 6.0mph /  9.7km/h 86% 0.02in /  0.5mm
18:44 32.8 °F /  0.4 °C 29.1 °F /  -1.6 °C 29.89in /  1012.1hPa NW 2.0mph /  3.2km/h 8.0mph /  12.9km/h 86% 0.02in /  0.5mm
18:49 32.8 °F /  0.4 °C 29.1 °F /  -1.6 °C 29.89in /  1012.1hPa NNW 4.0mph /  6.4km/h 9.0mph /  14.5km/h 86% 0.02in /  0.5mm
18:54 32.7 °F /  0.4 °C 29.0 °F /  -1.7 °C 29.90in /  1012.4hPa NNW 4.0mph /  6.4km/h 9.0mph /  14.5km/h 86% 0.02in /  0.5mm
18:59 32.7 °F /  0.4 °C 29.0 °F /  -1.7 °C 29.90in /  1012.4hPa NW 5.0mph /  8km/h 9.0mph /  14.5km/h 86% 0.02in /  0.5mm
19:04 32.6 °F /  0.3 °C 28.9 °F /  -1.7 °C 29.90in /  1012.4hPa NW 3.0mph /  4.8km/h 9.0mph /  14.5km/h 86% 0.02in /  0.5mm
19:09 32.6 °F /  0.3 °C 28.9 °F /  -1.7 °C 29.90in /  1012.4hPa Calm   6.0mph /  9.7km/h 86% 0.02in /  0.5mm
19:14 32.5 °F /  0.3 °C 28.8 °F /  -1.8 °C 29.90in /  1012.4hPa NNW 1.0mph /  1.6km/h 5.0mph /  8km/h 86% 0.02in /  0.5mm
19:19 32.4 °F /  0.2 °C 28.7 °F /  -1.8 °C 29.90in /  1012.4hPa NNW 1.0mph /  1.6km/h 5.0mph /  8km/h 86% 0.02in /  0.5mm
19:24 32.4 °F /  0.2 °C 28.7 °F /  -1.8 °C 29.91in /  1012.8hPa NW 2.0mph /  3.2km/h 8.0mph /  12.9km/h 86% 0.02in /  0.5mm
19:29 32.5 °F /  0.3 °C 28.5 °F /  -1.9 °C 29.91in /  1012.8hPa NNW 1.0mph /  1.6km/h 8.0mph /  12.9km/h 85% 0.02in /  0.5mm
19:34 32.5 °F /  0.3 °C 28.5 °F /  -1.9 °C 29.91in /  1012.8hPa NW 2.0mph /  3.2km/h 6.0mph /  9.7km/h 85% 0.02in /  0.5mm
19:39 32.5 °F /  0.3 °C 28.5 °F /  -1.9 °C 29.91in /  1012.8hPa Calm   8.0mph /  12.9km/h 85% 0.02in /  0.5mm
19:44 32.6 °F /  0.3 °C 28.3 °F /  -2.1 °C 29.91in /  1012.8hPa Calm   8.0mph /  12.9km/h 84% 0.02in /  0.5mm
19:49 32.7 °F /  0.4 °C 28.1 °F /  -2.2 °C 29.91in /  1012.8hPa NW 7.0mph /  11.3km/h 12.0mph /  19.3km/h 83% 0.02in /  0.5mm
19:59 33.1 °F /  0.6 °C 27.6 °F /  -2.4 °C 29.92in /  1013.1hPa NNW 5.0mph /  8km/h 11.0mph /  17.7km/h 80% 0.02in /  0.5mm
20:04 33.2 °F /  0.7 °C 27.7 °F /  -2.4 °C 29.92in /  1013.1hPa NW 2.0mph /  3.2km/h 11.0mph /  17.7km/h 80% 0.02in /  0.5mm
20:09 33.2 °F /  0.7 °C 27.4 °F /  -2.6 °C 29.92in /  1013.1hPa NW 3.0mph /  4.8km/h 11.0mph /  17.7km/h 79% 0.02in /  0.5mm
20:14 33.2 °F /  0.7 °C 27.4 °F /  -2.6 °C 29.92in /  1013.1hPa NNW 1.0mph /  1.6km/h 8.0mph /  12.9km/h 79% 0.02in /  0.5mm
20:19 33.2 °F /  0.7 °C 27.4 °F /  -2.6 °C 29.92in /  1013.1hPa NNW 1.0mph /  1.6km/h 10.0mph /  16.1km/h 79% 0.02in /  0.5mm
20:24 33.2 °F /  0.7 °C 27.4 °F /  -2.6 °C 29.92in /  1013.1hPa NNW 2.0mph /  3.2km/h 10.0mph /  16.1km/h 79% 0.02in /  0.5mm
20:29 33.1 °F /  0.6 °C 27.3 °F /  -2.6 °C 29.92in /  1013.1hPa NNW 2.0mph /  3.2km/h 6.0mph /  9.7km/h 79% 0.02in /  0.5mm
20:39 33.0 °F /  0.6 °C 27.2 °F /  -2.7 °C 29.92in /  1013.1hPa NNW 4.0mph /  6.4km/h 7.0mph /  11.3km/h 79% 0.02in /  0.5mm
20:44 33.0 °F /  0.6 °C 27.2 °F /  -2.7 °C 29.92in /  1013.1hPa NW 1.0mph /  1.6km/h 7.0mph /  11.3km/h 79% 0.02in /  0.5mm
20:49 32.9 °F /  0.5 °C 27.1 °F /  -2.7 °C 29.93in /  1013.4hPa WNW 1.0mph /  1.6km/h 5.0mph /  8km/h 79% 0.02in /  0.5mm
20:59 32.9 °F /  0.5 °C 27.1 °F /  -2.7 °C 29.93in /  1013.4hPa NW 2.0mph /  3.2km/h 5.0mph /  8km/h 79% 0.02in /  0.5mm
21:04 33.0 °F /  0.6 °C 27.2 °F /  -2.7 °C 29.92in /  1013.1hPa Calm   8.0mph /  12.9km/h 79% 0.02in /  0.5mm
21:09 33.0 °F /  0.6 °C 27.2 °F /  -2.7 °C 29.93in /  1013.4hPa NW 2.0mph /  3.2km/h 8.0mph /  12.9km/h 79% 0.02in /  0.5mm
21:19 33.0 °F /  0.6 °C 27.5 °F /  -2.5 °C 29.93in /  1013.4hPa NW 5.0mph /  8km/h 16.0mph /  25.7km/h 80% 0.02in /  0.5mm
21:24 32.8 °F /  0.4 °C 27.6 °F /  -2.4 °C 29.93in /  1013.4hPa NW 6.0mph /  9.7km/h 16.0mph /  25.7km/h 81% 0.02in /  0.5mm
21:29 32.5 °F /  0.3 °C 27.6 °F /  -2.4 °C 29.93in /  1013.4hPa NW 2.0mph /  3.2km/h 10.0mph /  16.1km/h 82% 0.02in /  0.5mm
21:34 32.4 °F /  0.2 °C 27.5 °F /  -2.5 °C 29.93in /  1013.4hPa NW 5.0mph /  8km/h 9.0mph /  14.5km/h 82% 0.02in /  0.5mm
21:39 32.2 °F /  0.1 °C 27.0 °F /  -2.8 °C 29.93in /  1013.4hPa NNW 6.0mph /  9.7km/h 15.0mph /  24.1km/h 81% 0.02in /  0.5mm
21:44 31.9 °F /  -0.1 °C 27.0 °F /  -2.8 °C 29.93in /  1013.4hPa NW 4.0mph /  6.4km/h 15.0mph /  24.1km/h 82% 0.02in /  0.5mm
21:49 31.7 °F /  -0.2 °C 27.1 °F /  -2.7 °C 29.93in /  1013.4hPa NW 4.0mph /  6.4km/h 14.0mph /  22.5km/h 83% 0.02in /  0.5mm
21:54 31.6 °F /  -0.2 °C 27.0 °F /  -2.8 °C 29.93in /  1013.4hPa NW 5.0mph /  8km/h 13.0mph /  20.9km/h 83% 0.02in /  0.5mm
21:59 31.4 °F /  -0.3 °C 26.8 °F /  -2.9 °C 29.93in /  1013.4hPa NW 2.0mph /  3.2km/h 9.0mph /  14.5km/h 83% 0.02in /  0.5mm
22:04 31.3 °F /  -0.4 °C 26.7 °F /  -2.9 °C 29.93in /  1013.4hPa NW 2.0mph /  3.2km/h 8.0mph /  12.9km/h 83% 0.02in /  0.5mm
22:09 31.3 °F /  -0.4 °C 26.7 °F /  -2.9 °C 29.93in /  1013.4hPa NNW 1.0mph /  1.6km/h 7.0mph /  11.3km/h 83% 0.02in /  0.5mm
22:14 31.4 °F /  -0.3 °C 26.8 °F /  -2.9 °C 29.93in /  1013.4hPa NNW 1.0mph /  1.6km/h 7.0mph /  11.3km/h 83% 0.02in /  0.5mm
22:19 31.4 °F /  -0.3 °C 26.5 °F /  -3.1 °C 29.93in /  1013.4hPa NW 4.0mph /  6.4km/h 7.0mph /  11.3km/h 82% 0.02in /  0.5mm
22:24 31.5 °F /  -0.3 °C 26.6 °F /  -3 °C 29.93in /  1013.4hPa NW 2.0mph /  3.2km/h 7.0mph /  11.3km/h 82% 0.02in /  0.5mm
22:29 31.6 °F /  -0.2 °C 26.4 °F /  -3.1 °C 29.93in /  1013.4hPa NNW 4.0mph /  6.4km/h 6.0mph /  9.7km/h 81% 0.02in /  0.5mm
22:35 31.8 °F /  -0.1 °C 26.3 °F /  -3.2 °C 29.93in /  1013.4hPa NW 5.0mph /  8km/h 9.0mph /  14.5km/h 80% 0.02in /  0.5mm
22:44 32.1 °F /  0.1 °C 26.0 °F /  -3.3 °C 29.93in /  1013.4hPa NNW 5.0mph /  8km/h 11.0mph /  17.7km/h 78% 0.02in /  0.5mm
22:49 32.2 °F /  0.1 °C 25.8 °F /  -3.4 °C 29.94in /  1013.8hPa NNW 3.0mph /  4.8km/h 13.0mph /  20.9km/h 77% 0.02in /  0.5mm
22:59 32.3 °F /  0.2 °C 25.3 °F /  -3.7 °C 29.94in /  1013.8hPa NNW 6.0mph /  9.7km/h 18.0mph /  29km/h 75% 0.02in /  0.5mm
23:04 32.4 °F /  0.2 °C 25.0 °F /  -3.9 °C 29.94in /  1013.8hPa NW 2.0mph /  3.2km/h 14.0mph /  22.5km/h 74% 0.02in /  0.5mm
23:09 32.4 °F /  0.2 °C 24.7 °F /  -4.1 °C 29.94in /  1013.8hPa NNW 4.0mph /  6.4km/h 12.0mph /  19.3km/h 73% 0.02in /  0.5mm
23:14 32.4 °F /  0.2 °C 24.4 °F /  -4.2 °C 29.94in /  1013.8hPa NNW 7.0mph /  11.3km/h 15.0mph /  24.1km/h 72% 0.02in /  0.5mm
23:19 32.4 °F /  0.2 °C 24.4 °F /  -4.2 °C 29.94in /  1013.8hPa NW 5.0mph /  8km/h 15.0mph /  24.1km/h 72% 0.02in /  0.5mm
23:24 32.4 °F /  0.2 °C 24.1 °F /  -4.4 °C 29.94in /  1013.8hPa WNW 6.0mph /  9.7km/h 13.0mph /  20.9km/h 71% 0.02in /  0.5mm
23:29 32.4 °F /  0.2 °C 24.1 °F /  -4.4 °C 29.94in /  1013.8hPa NW 3.0mph /  4.8km/h 16.0mph /  25.7km/h 71% 0.02in /  0.5mm
23:34 32.4 °F /  0.2 °C 23.7 °F /  -4.6 °C 29.95in /  1014.1hPa NW 6.0mph /  9.7km/h 16.0mph /  25.7km/h 70% 0.02in /  0.5mm
23:39 32.4 °F /  0.2 °C 23.7 °F /  -4.6 °C 29.95in /  1014.1hPa NW 4.0mph /  6.4km/h 11.0mph /  17.7km/h 70% 0.02in /  0.5mm
23:44 32.3 °F /  0.2 °C 23.6 °F /  -4.7 °C 29.95in /  1014.1hPa NW 7.0mph /  11.3km/h 13.0mph /  20.9km/h 70% 0.02in /  0.5mm
23:49 32.3 °F /  0.2 °C 23.6 °F /  -4.7 °C 29.94in /  1013.8hPa NNW 3.0mph /  4.8km/h 13.0mph /  20.9km/h 70% 0.02in /  0.5mm
23:59 32.2 °F /  0.1 °C 23.9 °F /  -4.5 °C 29.95in /  1014.1hPa NW 4.0mph /  6.4km/h 10.0mph /  16.1km/h 71% 0.02in /  0.5mm
Westford Weather
Compliments of Weather Underground

 
 
Current Radar Loop:

Copyright © WestfordWeather.net 2007-2014. All rights reserved.